createdAt,value
2018-08-08T00:01:42.441Z,6.90
2018-08-08T00:04:10.821Z,6.30
2018-08-08T00:06:39.446Z,5.87
2018-08-08T00:09:09.005Z,6.60
2018-08-08T00:11:37.365Z,6.03
2018-08-08T00:14:05.996Z,5.97
2018-08-08T00:16:34.369Z,6.13
2018-08-08T00:19:02.916Z,5.60
2018-08-08T00:21:31.502Z,6.47
2018-08-08T00:23:59.902Z,6.30
2018-08-08T00:26:28.394Z,6.10
2018-08-08T00:28:56.737Z,6.03
2018-08-08T00:31:25.118Z,6.87
2018-08-08T00:33:53.517Z,6.20
2018-08-08T00:36:21.870Z,6.37
2018-08-08T00:38:50.358Z,6.20
2018-08-08T00:41:18.758Z,6.63
2018-08-08T00:43:47.246Z,6.40
2018-08-08T00:46:15.608Z,5.90
2018-08-08T00:48:43.989Z,6.83
2018-08-08T00:51:12.431Z,5.50
2018-08-08T00:53:41.052Z,6.47
2018-08-08T00:56:09.385Z,6.20
2018-08-08T00:58:37.909Z,6.00
2018-08-08T01:01:06.241Z,6.20
2018-08-08T01:03:34.564Z,5.87
2018-08-08T01:06:03.015Z,6.17
2018-08-08T01:08:31.387Z,6.50
2018-08-08T01:10:59.749Z,6.10
2018-08-08T01:13:28.075Z,8.37
2018-08-08T01:15:56.445Z,6.47
2018-08-08T01:18:24.792Z,6.93
2018-08-08T01:20:53.163Z,6.80
2018-08-08T01:23:21.489Z,7.10
2018-08-08T01:25:50.112Z,7.20
2018-08-08T01:28:18.485Z,6.63
2018-08-08T01:30:46.862Z,6.37
2018-08-08T01:33:15.242Z,6.50
2018-08-08T01:35:43.606Z,6.30
2018-08-08T01:38:11.942Z,6.37
2018-08-08T01:40:40.279Z,5.90
2018-08-08T01:43:08.678Z,6.57
2018-08-08T01:45:37.068Z,6.87
2018-08-08T01:48:05.427Z,7.00
2018-08-08T01:50:33.930Z,6.80
2018-08-08T01:53:02.254Z,6.70
2018-08-08T01:55:30.691Z,6.87
2018-08-08T01:57:59.166Z,6.50
2018-08-08T02:00:27.566Z,6.70
2018-08-08T02:02:55.954Z,7.07
2018-08-08T02:05:24.586Z,6.67
2018-08-08T02:07:53.038Z,6.73
2018-08-08T02:10:22.698Z,6.17
2018-08-08T02:12:51.538Z,6.73
2018-08-08T02:15:20.015Z,6.60
2018-08-08T02:17:48.463Z,6.80
2018-08-08T02:20:17.166Z,6.50
2018-08-08T02:22:45.757Z,6.60
2018-08-08T02:25:15.554Z,6.90
2018-08-08T02:27:44.014Z,6.60
2018-08-08T02:30:17.739Z,6.67
2018-08-08T02:32:47.020Z,6.27
2018-08-08T02:35:15.486Z,7.17
2018-08-08T02:37:43.906Z,6.67
2018-08-08T02:40:12.634Z,6.70
2018-08-08T02:42:41.646Z,7.13
2018-08-08T02:45:15.018Z,6.60
2018-08-08T02:47:43.447Z,7.00
2018-08-08T02:50:13.505Z,6.70
2018-08-08T02:52:42.434Z,6.50
2018-08-08T02:55:12.014Z,7.13
2018-08-08T02:57:40.758Z,7.00
2018-08-08T03:00:11.620Z,7.00
2018-08-08T03:02:40.023Z,7.07
2018-08-08T03:05:09.890Z,7.63
2018-08-08T03:07:38.836Z,7.20
2018-08-08T03:10:09.326Z,6.73
2018-08-08T03:12:37.970Z,7.77
2018-08-08T03:15:08.570Z,6.90
2018-08-08T03:17:37.004Z,7.10
2018-08-08T03:20:05.655Z,6.93
2018-08-08T03:22:34.006Z,8.37
2018-08-08T03:25:02.590Z,8.13
2018-08-08T03:27:30.906Z,6.87
2018-08-08T03:29:59.262Z,6.93
2018-08-08T03:32:27.616Z,6.97
2018-08-08T03:34:55.950Z,6.87
2018-08-08T03:37:24.448Z,7.57
2018-08-08T03:39:52.794Z,7.20
2018-08-08T03:42:21.166Z,7.60
2018-08-08T03:44:49.478Z,7.30
2018-08-08T03:47:17.786Z,8.53
2018-08-08T03:49:46.163Z,8.37
2018-08-08T03:52:14.501Z,7.73
2018-08-08T03:54:42.830Z,7.60
2018-08-08T03:57:11.366Z,8.00
2018-08-08T03:59:39.718Z,7.50
2018-08-08T04:02:08.234Z,7.73
2018-08-08T04:04:36.850Z,7.90
2018-08-08T04:07:05.275Z,7.30
2018-08-08T04:09:33.606Z,8.00
2018-08-08T04:12:02.014Z,7.73
2018-08-08T04:14:30.369Z,8.10
2018-08-08T04:16:58.710Z,8.43
2018-08-08T04:19:27.074Z,8.07
2018-08-08T04:21:55.406Z,7.73
2018-08-08T04:24:23.951Z,7.87
2018-08-08T04:26:52.275Z,8.00
2018-08-08T04:29:20.610Z,7.60
2018-08-08T04:31:48.976Z,9.03
2018-08-08T04:34:17.332Z,8.80
2018-08-08T04:36:45.710Z,9.00
2018-08-08T04:39:14.090Z,9.40
2018-08-08T04:41:42.445Z,8.70
2018-08-08T04:44:10.802Z,8.50
2018-08-08T04:46:39.126Z,9.00
2018-08-08T04:49:07.491Z,25.93
2018-08-08T04:51:35.855Z,13.00
2018-08-08T04:54:04.222Z,10.00
2018-08-08T04:56:32.634Z,9.77
2018-08-08T04:59:01.022Z,12.77
2018-08-08T05:01:29.422Z,8.70
2018-08-08T05:03:57.814Z,9.47
2018-08-08T05:06:26.150Z,9.80
2018-08-08T05:08:54.463Z,9.73
2018-08-08T05:11:22.811Z,9.17
2018-08-08T05:13:51.131Z,9.13
2018-08-08T05:16:19.557Z,9.83
2018-08-08T05:18:47.970Z,9.20
2018-08-08T05:21:16.355Z,9.80
2018-08-08T05:23:44.690Z,9.50
2018-08-08T05:26:13.074Z,9.37
2018-08-08T05:28:41.419Z,9.60
2018-08-08T05:31:09.755Z,8.80
2018-08-08T05:33:38.136Z,9.10
2018-08-08T05:36:06.497Z,9.67
2018-08-08T05:38:34.918Z,8.10
2018-08-08T05:41:03.282Z,9.67
2018-08-08T05:43:31.886Z,9.50
2018-08-08T05:46:00.303Z,9.03
2018-08-08T05:48:28.662Z,8.77
2018-08-08T05:50:57.074Z,9.37
2018-08-08T05:53:25.413Z,9.80
2018-08-08T05:55:53.798Z,8.43
2018-08-08T05:58:22.362Z,10.20
2018-08-08T06:00:50.694Z,9.20
2018-08-08T06:03:19.042Z,8.87
2018-08-08T06:05:47.445Z,7.90
2018-08-08T06:08:15.842Z,7.77
2018-08-08T06:10:44.859Z,19.73
2018-08-08T06:13:13.495Z,8.77
2018-08-08T06:15:41.851Z,7.87
2018-08-08T06:18:10.214Z,8.23
2018-08-08T06:20:38.852Z,10.47
2018-08-08T06:23:07.282Z,6.13
2018-08-08T06:25:35.679Z,5.73
2018-08-08T06:28:04.156Z,6.00
2018-08-08T06:30:32.611Z,5.67
2018-08-08T06:33:01.354Z,6.07
2018-08-08T06:35:30.209Z,7.07
2018-08-08T06:37:58.911Z,5.63
2018-08-08T06:40:27.386Z,5.50
2018-08-08T06:42:55.802Z,5.50
2018-08-08T06:45:25.728Z,5.87
2018-08-08T06:47:54.210Z,4.93
2018-08-08T06:50:22.678Z,4.87
2018-08-08T06:52:51.174Z,4.70
2018-08-08T06:55:19.607Z,5.93
2018-08-08T06:57:47.998Z,5.00
2018-08-08T07:00:20.998Z,5.23
2018-08-08T07:02:49.409Z,5.17
2018-08-08T07:05:18.595Z,5.60
2018-08-08T07:07:47.841Z,5.20
2018-08-08T07:10:16.269Z,5.40
2018-08-08T07:12:44.692Z,4.97
2018-08-08T07:15:14.860Z,5.73
2018-08-08T07:17:43.367Z,5.60
2018-08-08T07:20:13.017Z,5.30
2018-08-08T07:22:41.670Z,5.00
2018-08-08T07:25:11.854Z,5.60
2018-08-08T07:27:40.301Z,5.20
2018-08-08T07:30:11.074Z,5.83
2018-08-08T07:32:39.686Z,4.47
2018-08-08T07:35:08.837Z,5.70
2018-08-08T07:37:37.351Z,4.83
2018-08-08T07:40:07.802Z,4.78
2018-08-08T07:42:36.238Z,5.42
2018-08-08T07:45:06.350Z,4.55
2018-08-08T07:47:34.788Z,4.72
2018-08-08T07:50:03.298Z,4.33
2018-08-08T07:52:31.998Z,3.87
2018-08-08T07:55:00.414Z,4.40
2018-08-08T07:57:28.863Z,4.40
2018-08-08T07:59:57.303Z,4.40
2018-08-08T08:02:25.799Z,5.15
2018-08-08T08:04:54.210Z,3.92
2018-08-08T08:07:22.579Z,5.00
2018-08-08T08:09:51.134Z,4.75
2018-08-08T08:12:19.552Z,4.40
2018-08-08T08:14:47.927Z,4.75
2018-08-08T08:17:16.344Z,5.50
2018-08-08T08:19:44.794Z,5.67
2018-08-08T08:22:13.176Z,4.92
2018-08-08T08:24:41.786Z,4.42
2018-08-08T08:27:10.209Z,5.03
2018-08-08T08:29:38.582Z,5.40
2018-08-08T08:32:07.180Z,4.95
2018-08-08T08:34:35.590Z,4.92
2018-08-08T08:37:03.977Z,5.65
2018-08-08T08:39:32.394Z,4.62
2018-08-08T08:42:00.786Z,4.50
2018-08-08T08:44:29.186Z,5.87
2018-08-08T08:46:57.798Z,5.50
2018-08-08T08:49:26.170Z,5.57
2018-08-08T08:51:54.546Z,6.60
2018-08-08T08:54:22.979Z,6.70
2018-08-08T08:56:51.338Z,6.53
2018-08-08T08:59:19.702Z,6.90
2018-08-08T09:01:48.194Z,6.93
2018-08-08T09:04:16.986Z,6.97
2018-08-08T09:06:45.805Z,6.40
2018-08-08T09:09:14.408Z,5.40
2018-08-08T09:11:43.022Z,4.87
2018-08-08T09:14:11.418Z,4.53
2018-08-08T09:16:40.053Z,4.47
2018-08-08T09:19:08.425Z,4.67
2018-08-08T09:21:36.846Z,4.55
2018-08-08T09:24:05.332Z,4.80
2018-08-08T09:26:33.726Z,4.17
2018-08-08T09:29:02.150Z,4.77
2018-08-08T09:31:30.582Z,4.80
2018-08-08T09:33:58.971Z,4.70
2018-08-08T09:36:27.604Z,4.27
2018-08-08T09:38:55.969Z,4.23
2018-08-08T09:41:24.326Z,4.40
2018-08-08T09:43:52.842Z,3.50
2018-08-08T09:46:21.222Z,4.40
2018-08-08T09:48:49.646Z,4.40
2018-08-08T09:51:18.783Z,4.83
2018-08-08T09:53:47.181Z,3.77
2018-08-08T09:56:15.623Z,4.43
2018-08-08T09:58:44.032Z,4.60
2018-08-08T10:01:17.958Z,4.47
2018-08-08T10:03:50.608Z,4.50
2018-08-08T10:06:19.218Z,4.60
2018-08-08T10:08:47.586Z,5.07
2018-08-08T10:11:15.987Z,4.73
2018-08-08T10:13:44.706Z,4.47
2018-08-08T10:16:13.071Z,4.57
2018-08-08T10:18:41.487Z,3.93
2018-08-08T10:21:09.827Z,4.63
2018-08-08T10:23:38.178Z,3.73
2018-08-08T10:26:06.500Z,4.10
2018-08-08T10:28:34.917Z,4.00
2018-08-08T10:31:03.254Z,4.87
2018-08-08T10:33:31.653Z,4.40
2018-08-08T10:36:00.035Z,4.10
2018-08-08T10:38:28.373Z,4.23
2018-08-08T10:40:56.808Z,5.00
2018-08-08T10:43:25.136Z,4.23
2018-08-08T10:45:53.450Z,3.67
2018-08-08T10:48:21.786Z,4.20
2018-08-08T10:50:50.142Z,3.70
2018-08-08T10:53:18.458Z,4.10
2018-08-08T10:55:46.802Z,3.93
2018-08-08T10:58:15.361Z,4.00
2018-08-08T11:00:43.691Z,3.00
2018-08-08T11:03:12.065Z,3.80
2018-08-08T11:05:40.461Z,3.40
2018-08-08T11:08:08.778Z,3.80
2018-08-08T11:10:37.119Z,4.00
2018-08-08T11:13:05.662Z,3.87
2018-08-08T11:15:34.002Z,3.40
2018-08-08T11:18:02.382Z,3.60
2018-08-08T11:20:31.095Z,3.80
2018-08-08T11:22:59.495Z,3.57
2018-08-08T11:25:27.880Z,4.10
2018-08-08T11:27:56.331Z,4.17
2018-08-08T11:30:24.751Z,4.53
2018-08-08T11:32:53.101Z,3.90
2018-08-08T11:35:21.517Z,4.43
2018-08-08T11:37:51.346Z,4.20
2018-08-08T11:40:19.690Z,4.67
2018-08-08T11:42:48.073Z,4.43
2018-08-08T11:45:16.450Z,4.50
2018-08-08T11:47:44.767Z,4.50
2018-08-08T11:50:13.122Z,5.50
2018-08-08T11:52:41.488Z,4.90
2018-08-08T11:55:09.823Z,4.10
2018-08-08T11:57:38.150Z,4.60
2018-08-08T12:00:07.001Z,5.20
2018-08-08T12:02:35.331Z,4.50
2018-08-08T12:05:03.832Z,4.87
2018-08-08T12:07:32.342Z,4.67
2018-08-08T12:10:00.695Z,4.60
2018-08-08T12:12:29.047Z,5.20
2018-08-08T12:14:57.502Z,5.00
2018-08-08T12:17:25.870Z,4.53
2018-08-08T12:19:54.270Z,4.90
2018-08-08T12:22:22.683Z,5.87
2018-08-08T12:24:51.151Z,5.30
2018-08-08T12:27:19.534Z,6.07
2018-08-08T12:29:48.588Z,5.50
2018-08-08T12:32:17.475Z,5.90
2018-08-08T12:34:45.854Z,5.20
2018-08-08T12:37:14.298Z,6.07
2018-08-08T12:39:42.690Z,6.00
2018-08-08T12:42:11.110Z,5.47
2018-08-08T12:44:39.826Z,5.97
2018-08-08T12:47:08.207Z,5.83
2018-08-08T12:49:36.638Z,6.40
2018-08-08T12:52:05.098Z,5.93
2018-08-08T12:54:33.489Z,6.70
2018-08-08T12:57:02.072Z,6.60
2018-08-08T12:59:30.464Z,6.20
2018-08-08T13:01:58.868Z,6.90
2018-08-08T13:04:27.458Z,6.80
2018-08-08T13:06:55.910Z,7.33
2018-08-08T13:09:24.303Z,6.43
2018-08-08T13:11:52.853Z,7.10
2018-08-08T13:14:21.383Z,6.70
2018-08-08T13:16:49.623Z,6.60
2018-08-08T13:19:18.018Z,7.17
2018-08-08T13:21:46.450Z,6.53
2018-08-08T13:24:15.039Z,6.70
2018-08-08T13:26:43.343Z,7.17
2018-08-08T13:29:11.662Z,6.27
2018-08-08T13:31:40.030Z,6.13
2018-08-08T13:34:08.375Z,6.80
2018-08-08T13:36:36.911Z,6.13
2018-08-08T13:39:08.501Z,6.83
2018-08-08T13:41:36.927Z,6.97
2018-08-08T13:44:05.287Z,6.80
2018-08-08T13:46:33.639Z,7.80
2018-08-08T13:49:02.050Z,6.87
2018-08-08T13:51:30.427Z,7.00
2018-08-08T13:53:58.963Z,7.03
2018-08-08T13:56:27.302Z,7.37
2018-08-08T13:58:55.675Z,6.00
2018-08-08T14:01:24.106Z,6.33
2018-08-08T14:03:52.398Z,7.77
2018-08-08T14:06:20.746Z,7.30
2018-08-08T14:08:49.128Z,6.83
2018-08-08T14:11:17.463Z,5.70
2018-08-08T14:13:45.854Z,6.87
2018-08-08T14:16:14.386Z,6.37
2018-08-08T14:18:42.774Z,6.80
2018-08-08T14:21:12.035Z,7.93
2018-08-08T14:23:41.538Z,7.17
2018-08-08T14:26:09.886Z,7.40
2018-08-08T14:28:38.258Z,6.53
2018-08-08T14:31:06.750Z,7.10
2018-08-08T14:33:35.089Z,6.80
2018-08-08T14:36:03.682Z,7.70
2018-08-08T14:38:33.028Z,7.03
2018-08-08T14:41:01.392Z,6.50
2018-08-08T14:43:29.931Z,6.90
2018-08-08T14:45:58.270Z,6.97
2018-08-08T14:48:26.650Z,7.93
2018-08-08T14:50:55.119Z,7.47
2018-08-08T14:53:23.425Z,7.80
2018-08-08T14:55:51.771Z,7.70
2018-08-08T14:58:20.135Z,8.30
2018-08-08T15:00:48.479Z,7.20
2018-08-08T15:03:16.838Z,7.80
2018-08-08T15:05:45.343Z,8.30
2018-08-08T15:08:13.881Z,7.03
2018-08-08T15:10:42.252Z,8.20
2018-08-08T15:13:10.746Z,8.10
2018-08-08T15:15:39.134Z,8.10
2018-08-08T15:18:07.637Z,7.80
2018-08-08T15:20:36.011Z,7.43
2018-08-08T15:23:04.541Z,8.57
2018-08-08T15:25:32.929Z,7.90
2018-08-08T15:28:01.379Z,8.50
2018-08-08T15:30:29.824Z,9.10
2018-08-08T15:32:58.302Z,9.47
2018-08-08T15:35:26.698Z,9.10
2018-08-08T15:37:55.235Z,9.80
2018-08-08T15:40:23.606Z,8.27
2018-08-08T15:42:52.202Z,7.93
2018-08-08T15:45:20.618Z,7.60
2018-08-08T15:47:49.035Z,7.67
2018-08-08T15:50:17.606Z,7.63
2018-08-08T15:52:46.027Z,8.43
2018-08-08T15:55:14.604Z,11.07
2018-08-08T15:57:43.106Z,12.37
2018-08-08T16:00:12.890Z,8.50
2018-08-08T16:02:41.315Z,8.77
2018-08-08T16:05:10.030Z,8.37
2018-08-08T16:07:38.874Z,8.83
2018-08-08T16:10:09.250Z,8.50
2018-08-08T16:12:37.778Z,8.53
2018-08-08T16:15:06.842Z,8.03
2018-08-08T16:17:35.383Z,8.93
2018-08-08T16:20:04.406Z,7.90
2018-08-08T16:22:32.883Z,8.40
2018-08-08T16:25:01.835Z,8.83
2018-08-08T16:27:30.189Z,9.50
2018-08-08T16:29:58.550Z,8.60
2018-08-08T16:32:27.150Z,8.20
2018-08-08T16:34:55.517Z,7.90
2018-08-08T16:37:23.858Z,7.47
2018-08-08T16:39:52.363Z,8.03
2018-08-08T16:42:20.698Z,8.00
2018-08-08T16:44:49.149Z,8.10
2018-08-08T16:47:17.653Z,8.67
2018-08-08T16:49:46.034Z,10.30
2018-08-08T16:52:14.371Z,8.73
2018-08-08T16:54:42.714Z,9.23
2018-08-08T16:57:11.124Z,8.57
2018-08-08T16:59:39.438Z,8.70
2018-08-08T17:02:07.786Z,8.63
2018-08-08T17:04:36.320Z,8.30
2018-08-08T17:07:04.687Z,8.33
2018-08-08T17:09:33.037Z,8.67
2018-08-08T17:12:02.029Z,7.70
2018-08-08T17:14:30.406Z,8.13
2018-08-08T17:16:58.947Z,8.60
2018-08-08T17:19:27.330Z,8.00
2018-08-08T17:21:55.775Z,10.37
2018-08-08T17:24:24.206Z,10.13
2018-08-08T17:26:52.768Z,8.77
2018-08-08T17:29:21.160Z,8.23
2018-08-08T17:31:49.527Z,8.10
2018-08-08T17:34:18.070Z,7.87
2018-08-08T17:36:46.458Z,7.90
2018-08-08T17:39:14.878Z,8.20
2018-08-08T17:41:43.291Z,7.40
2018-08-08T17:44:11.807Z,7.97
2018-08-08T17:46:40.326Z,7.20
2018-08-08T17:49:08.751Z,8.00
2018-08-08T17:51:37.171Z,6.90
2018-08-08T17:54:05.739Z,7.87
2018-08-08T17:56:34.186Z,8.70
2018-08-08T17:59:02.537Z,7.70
2018-08-08T18:01:31.142Z,7.47
2018-08-08T18:03:59.510Z,7.60
2018-08-08T18:06:27.918Z,15.53
2018-08-08T18:08:56.339Z,9.27
2018-08-08T18:11:24.755Z,11.23
2018-08-08T18:13:53.166Z,8.30
2018-08-08T18:16:21.559Z,8.60
2018-08-08T18:18:49.979Z,7.73
2018-08-08T18:21:18.443Z,9.30
2018-08-08T18:23:47.003Z,7.60
2018-08-08T18:26:15.490Z,7.40
2018-08-08T18:28:43.899Z,8.30
2018-08-08T18:31:12.735Z,8.40
2018-08-08T18:33:41.191Z,7.77
2018-08-08T18:36:09.628Z,8.83
2018-08-08T18:38:38.257Z,8.17
2018-08-08T18:41:06.691Z,8.50
2018-08-08T18:43:35.242Z,13.50
2018-08-08T18:46:03.790Z,11.23
2018-08-08T18:48:32.327Z,9.20
2018-08-08T18:51:00.726Z,8.50
2018-08-08T18:53:29.218Z,9.03
2018-08-08T18:55:57.625Z,8.80
2018-08-08T18:58:26.110Z,8.40
2018-08-08T19:00:55.204Z,8.40
2018-08-08T19:03:23.616Z,8.20
2018-08-08T19:05:52.008Z,8.50
2018-08-08T19:08:20.512Z,8.93
2018-08-08T19:10:48.898Z,8.77
2018-08-08T19:13:17.338Z,9.97
2018-08-08T19:15:45.752Z,8.17
2018-08-08T19:18:14.158Z,7.67
2018-08-08T19:20:42.755Z,8.50
2018-08-08T19:23:11.203Z,8.53
2018-08-08T19:25:39.719Z,9.13
2018-08-08T19:28:08.096Z,9.57
2018-08-08T19:30:36.486Z,8.80
2018-08-08T19:33:05.318Z,9.57
2018-08-08T19:35:33.687Z,8.53
2018-08-08T19:38:02.027Z,11.83
2018-08-08T19:40:30.410Z,30.17
2018-08-08T19:42:58.775Z,10.30
2018-08-08T19:45:27.277Z,8.30
2018-08-08T19:47:55.620Z,8.80
2018-08-08T19:50:23.962Z,8.83
2018-08-08T19:52:52.466Z,9.60
2018-08-08T19:55:20.854Z,8.80
2018-08-08T19:57:49.181Z,8.97
2018-08-08T20:00:17.723Z,9.50
2018-08-08T20:02:46.573Z,9.27
2018-08-08T20:05:14.947Z,9.20
2018-08-08T20:07:43.314Z,8.27
2018-08-08T20:10:11.706Z,8.50
2018-08-08T20:12:40.078Z,8.60
2018-08-08T20:15:08.478Z,9.13
2018-08-08T20:17:36.896Z,9.97
2018-08-08T20:20:05.727Z,9.03
2018-08-08T20:22:34.044Z,9.00
2018-08-08T20:25:02.463Z,10.00
2018-08-08T20:27:30.786Z,8.53
2018-08-08T20:29:59.130Z,8.77
2018-08-08T20:32:27.482Z,8.50
2018-08-08T20:34:56.162Z,32.67
2018-08-08T20:37:24.518Z,29.00
2018-08-08T20:39:53.718Z,18.37
2018-08-08T20:42:22.071Z,11.37
2018-08-08T20:44:50.708Z,10.93
2018-08-08T20:47:18.961Z,11.20
2018-08-08T20:49:47.474Z,12.27
2018-08-08T20:52:15.859Z,10.07
2018-08-08T20:54:44.234Z,10.60
2018-08-08T20:57:12.692Z,10.43
2018-08-08T20:59:41.043Z,11.60
2018-08-08T21:02:09.434Z,8.80
2018-08-08T21:04:37.875Z,9.70
2018-08-08T21:07:06.210Z,9.60
2018-08-08T21:09:34.613Z,10.00
2018-08-08T21:12:02.931Z,10.30
2018-08-08T21:14:31.278Z,11.43
2018-08-08T21:16:59.759Z,9.83
2018-08-08T21:19:28.122Z,10.97
2018-08-08T21:21:56.655Z,10.40
2018-08-08T21:24:24.988Z,10.90
2018-08-08T21:26:53.319Z,11.10
2018-08-08T21:29:21.818Z,9.97
2018-08-08T21:31:50.150Z,10.87
2018-08-08T21:34:18.482Z,54.60
2018-08-08T21:36:46.850Z,25.33
2018-08-08T21:39:15.175Z,11.03
2018-08-08T21:41:43.523Z,10.30
2018-08-08T21:44:11.889Z,9.60
2018-08-08T21:46:40.255Z,9.37
2018-08-08T21:49:08.586Z,9.27
2018-08-08T21:51:36.978Z,9.90
2018-08-08T21:54:16.602Z,8.77
2018-08-08T21:56:56.366Z,9.80
2018-08-08T21:59:36.034Z,9.03
2018-08-08T22:02:19.134Z,9.50
2018-08-08T22:04:59.114Z,10.30
2018-08-08T22:07:39.108Z,10.10
2018-08-08T22:10:18.681Z,9.10
2018-08-08T22:12:58.383Z,9.17
2018-08-08T22:15:37.981Z,9.67
2018-08-08T22:18:17.419Z,9.13
2018-08-08T22:20:45.807Z,9.53
2018-08-08T22:23:14.139Z,9.43
2018-08-08T22:25:42.549Z,9.70
2018-08-08T22:28:11.010Z,10.57
2018-08-08T22:30:39.354Z,9.80
2018-08-08T22:33:07.724Z,10.97
2018-08-08T22:35:36.230Z,9.60
2018-08-08T22:38:04.604Z,10.10
2018-08-08T22:40:32.947Z,9.73
2018-08-08T22:43:01.306Z,10.13
2018-08-08T22:45:29.638Z,9.67
2018-08-08T22:47:57.994Z,9.90
2018-08-08T22:50:26.346Z,10.07
2018-08-08T22:52:54.670Z,11.70
2018-08-08T22:55:23.067Z,10.90
2018-08-08T22:57:51.388Z,11.63
2018-08-08T23:00:19.715Z,10.90
2018-08-08T23:02:48.222Z,9.40
2018-08-08T23:05:16.558Z,9.43
2018-08-08T23:07:44.883Z,8.63
2018-08-08T23:10:13.246Z,9.33
2018-08-08T23:12:41.619Z,9.60
2018-08-08T23:15:11.346Z,9.07
2018-08-08T23:17:40.211Z,9.90
2018-08-08T23:20:09.215Z,9.80
2018-08-08T23:22:55.035Z,9.77
2018-08-08T23:25:23.438Z,9.80
2018-08-08T23:27:51.846Z,11.43
2018-08-08T23:30:20.435Z,11.60
2018-08-08T23:32:48.848Z,11.20
2018-08-08T23:35:17.154Z,9.67
2018-08-08T23:37:45.555Z,9.50
2018-08-08T23:40:13.888Z,9.83
2018-08-08T23:42:42.266Z,10.30
2018-08-08T23:45:10.675Z,9.60
2018-08-08T23:47:39.054Z,9.90
2018-08-08T23:50:08.455Z,10.73
2018-08-08T23:52:36.867Z,10.80
2018-08-08T23:55:05.554Z,10.63
2018-08-08T23:57:33.917Z,10.70
